createdAt,value
2018-12-06T00:01:33.340Z,99833.19
2018-12-06T00:04:36.702Z,99836.53
2018-12-06T00:11:33.317Z,99821.25
2018-12-06T00:14:36.509Z,99823.54
2018-12-06T00:17:39.712Z,99819.20
2018-12-06T00:20:43.073Z,99815.63
2018-12-06T00:23:46.277Z,99806.29
2018-12-06T00:26:49.669Z,99804.71
2018-12-06T00:30:09.945Z,99803.41
2018-12-06T00:33:13.189Z,99806.29
2018-12-06T00:36:16.417Z,99811.23
2018-12-06T00:39:19.642Z,99805.53
2018-12-06T00:42:22.899Z,99800.94
2018-12-06T00:45:26.376Z,99812.00
2018-12-06T00:48:29.741Z,99808.41
2018-12-06T00:51:32.968Z,99805.48
2018-12-06T00:54:36.193Z,99808.13
2018-12-06T00:57:39.405Z,99808.80
2018-12-06T01:00:42.640Z,99803.66
2018-12-06T01:03:45.848Z,99810.17
2018-12-06T01:06:49.041Z,99811.39
2018-12-06T01:09:52.507Z,99816.14
2018-12-06T01:12:55.730Z,99812.95
2018-12-06T01:15:59.011Z,99816.34
2018-12-06T01:19:02.245Z,99822.03
2018-12-06T01:22:05.725Z,99818.02
2018-12-06T01:25:09.057Z,99812.80
2018-12-06T01:28:12.371Z,99824.24
2018-12-06T01:31:15.588Z,99818.58
2018-12-06T01:34:18.804Z,99823.52
2018-12-06T01:37:22.060Z,99818.95
2018-12-06T01:40:25.285Z,99824.23
2018-12-06T01:43:28.476Z,99814.70
2018-12-06T01:46:31.700Z,99816.77
2018-12-06T01:49:34.893Z,99805.26
2018-12-06T01:52:39.239Z,99801.33
2018-12-06T01:55:42.445Z,99809.47
2018-12-06T01:58:46.109Z,99803.09
2018-12-06T02:01:49.468Z,99789.06
2018-12-06T02:04:52.749Z,99788.19
2018-12-06T02:07:55.991Z,99789.09
2018-12-06T02:10:59.300Z,99787.87
2018-12-06T02:14:02.787Z,99789.19
2018-12-06T02:17:06.323Z,99785.13
2018-12-06T02:20:09.708Z,99787.09
2018-12-06T02:23:12.964Z,99785.19
2018-12-06T02:26:16.158Z,99791.77
2018-12-06T02:29:19.557Z,99780.73
2018-12-06T02:32:23.678Z,99780.75
2018-12-06T02:35:27.021Z,99780.13
2018-12-06T02:38:30.366Z,99777.38
2018-12-06T02:41:33.571Z,99789.36
2018-12-06T02:44:37.026Z,99788.55
2018-12-06T02:47:40.237Z,99783.70
2018-12-06T02:50:43.475Z,99787.28
2018-12-06T02:53:46.698Z,99777.94
2018-12-06T02:56:50.073Z,99785.31
2018-12-06T02:59:53.319Z,99773.67
2018-12-06T03:02:56.513Z,99778.68
2018-12-06T03:05:59.870Z,99771.03
2018-12-06T03:09:05.426Z,99771.64
2018-12-06T03:12:10.691Z,99781.31
2018-12-06T03:15:14.032Z,99779.80
2018-12-06T03:18:17.254Z,99771.08
2018-12-06T03:21:20.588Z,99770.00
2018-12-06T03:24:23.812Z,99771.36
2018-12-06T03:27:27.061Z,99766.81
2018-12-06T03:30:30.286Z,99772.55
2018-12-06T03:33:33.614Z,99772.52
2018-12-06T03:36:36.867Z,99778.58
2018-12-06T03:39:40.107Z,99773.02
2018-12-06T03:42:43.313Z,99779.34
2018-12-06T03:45:46.522Z,99784.99
2018-12-06T03:48:49.786Z,99785.49
2018-12-06T03:51:53.017Z,99781.15
2018-12-06T03:54:56.210Z,99792.09
2018-12-06T03:57:59.556Z,99790.32
2018-12-06T04:01:02.781Z,99772.91
2018-12-06T04:04:08.884Z,99778.61
2018-12-06T04:07:12.101Z,99782.22
2018-12-06T04:10:15.298Z,99778.83
2018-12-06T04:13:18.509Z,99779.72
2018-12-06T04:16:21.708Z,99769.28
2018-12-06T04:19:24.928Z,99769.44
2018-12-06T04:22:28.136Z,99781.65
2018-12-06T04:25:31.332Z,99781.22
2018-12-06T04:28:34.533Z,99769.69
2018-12-06T04:31:37.746Z,99769.15
2018-12-06T04:34:43.101Z,99772.25
2018-12-06T04:37:46.549Z,99772.09
2018-12-06T04:40:49.757Z,99770.36
2018-12-06T04:43:52.978Z,99773.05
2018-12-06T04:46:56.362Z,99783.98
2018-12-06T04:49:59.714Z,99785.72
2018-12-06T04:53:02.925Z,99770.56
2018-12-06T04:56:06.132Z,99778.84
2018-12-06T04:59:09.345Z,99775.06
2018-12-06T05:02:12.714Z,99782.61
2018-12-06T05:05:16.068Z,99787.73
2018-12-06T05:08:19.287Z,99781.15
2018-12-06T05:11:22.500Z,99779.46
2018-12-06T05:14:25.713Z,99782.08
2018-12-06T05:17:28.946Z,99797.36
2018-12-06T05:20:32.173Z,99790.02
2018-12-06T05:23:35.400Z,99795.31
2018-12-06T05:26:38.617Z,99809.06
2018-12-06T05:29:41.832Z,99804.66
2018-12-06T05:32:45.070Z,99807.35
2018-12-06T05:35:48.281Z,99817.84
2018-12-06T05:38:51.501Z,99797.91
2018-12-06T05:41:54.684Z,99814.67
2018-12-06T05:44:57.929Z,99825.52
2018-12-06T05:48:01.121Z,99818.96
2018-12-06T05:51:04.532Z,99815.86
2018-12-06T05:54:07.747Z,99826.97
2018-12-06T05:57:11.061Z,99821.13
2018-12-06T06:00:14.281Z,99827.86
2018-12-06T06:03:17.493Z,99845.12
2018-12-06T06:06:20.712Z,99848.23
2018-12-06T06:09:25.643Z,99857.75
2018-12-06T06:12:28.928Z,99837.84
2018-12-06T06:15:32.224Z,99874.86
2018-12-06T06:18:35.433Z,99874.44
2018-12-06T06:21:38.656Z,99870.47
2018-12-06T06:24:41.864Z,99863.86
2018-12-06T06:27:45.089Z,99855.97
2018-12-06T06:30:48.311Z,99850.27
2018-12-06T06:33:51.525Z,99846.08
2018-12-06T06:36:54.864Z,99844.78
2018-12-06T06:39:58.085Z,99846.86
2018-12-06T06:43:01.418Z,99852.12
2018-12-06T06:46:04.776Z,99854.73
2018-12-06T06:49:13.717Z,99860.39
2018-12-06T06:52:13.236Z,99864.79
2018-12-06T06:55:16.461Z,99867.30
2018-12-06T06:58:19.664Z,99879.51
2018-12-06T07:01:22.873Z,99887.46
2018-12-06T07:04:26.180Z,99893.58
2018-12-06T07:07:29.525Z,99906.75
2018-12-06T07:10:32.838Z,99908.41
2018-12-06T07:13:36.085Z,99897.14
2018-12-06T07:16:39.729Z,99919.98
2018-12-06T07:19:42.953Z,99920.90
2018-12-06T07:22:46.428Z,99929.27
2018-12-06T07:25:49.653Z,99928.78
2018-12-06T07:28:52.852Z,99928.78
2018-12-06T07:31:56.064Z,99923.05
2018-12-06T07:34:59.359Z,99911.13
2018-12-06T07:38:02.693Z,99910.23
2018-12-06T07:41:06.082Z,99914.52
2018-12-06T07:44:09.374Z,99935.62
2018-12-06T07:47:12.601Z,99937.41
2018-12-06T07:50:15.985Z,99940.55
2018-12-06T07:53:19.178Z,99941.80
2018-12-06T07:56:22.388Z,99939.84
2018-12-06T07:59:25.594Z,99941.23
2018-12-06T08:02:28.880Z,99943.26
2018-12-06T08:05:32.137Z,99959.84
2018-12-06T08:08:35.449Z,99965.02
2018-12-06T08:11:38.809Z,99967.97
2018-12-06T08:14:42.090Z,99973.81
2018-12-06T08:17:46.420Z,99962.73
2018-12-06T08:20:49.637Z,99954.80
2018-12-06T08:23:52.836Z,99939.05
2018-12-06T08:26:56.059Z,99934.95
2018-12-06T08:29:59.244Z,99938.23
2018-12-06T08:33:02.462Z,99930.27
2018-12-06T08:36:05.904Z,99932.66
2018-12-06T08:39:09.133Z,99940.56
2018-12-06T08:42:12.380Z,99937.86
2018-12-06T08:45:15.733Z,99928.78
2018-12-06T08:48:18.949Z,99934.06
2018-12-06T08:51:22.153Z,99935.33
2018-12-06T08:54:25.482Z,99931.45
2018-12-06T08:57:28.693Z,99942.05
2018-12-06T09:00:31.901Z,99950.81
2018-12-06T09:03:35.140Z,99944.28
2018-12-06T09:06:40.304Z,99955.89
2018-12-06T09:09:43.628Z,99959.81
2018-12-06T09:12:46.833Z,99957.39
2018-12-06T09:15:50.031Z,99968.09
2018-12-06T09:18:53.281Z,99965.45
2018-12-06T09:21:56.476Z,99964.14
2018-12-06T09:24:59.721Z,99963.05
2018-12-06T09:28:02.969Z,99957.30
2018-12-06T09:31:06.181Z,99955.63
2018-12-06T09:34:09.415Z,99948.81
2018-12-06T09:37:12.832Z,99958.09
2018-12-06T09:40:16.053Z,99945.95
2018-12-06T09:43:19.280Z,99945.06
2018-12-06T09:46:22.657Z,99943.08
2018-12-06T09:49:25.925Z,99943.45
2018-12-06T09:52:29.160Z,99955.22
2018-12-06T09:55:32.380Z,99952.80
2018-12-06T09:58:35.616Z,99953.50
2018-12-06T10:01:38.853Z,99947.19
2018-12-06T10:04:42.203Z,99942.47
2018-12-06T10:07:45.425Z,99944.12
2018-12-06T10:10:48.676Z,99944.31
2018-12-06T10:13:51.903Z,99951.09
2018-12-06T10:16:55.336Z,99950.77
2018-12-06T10:19:58.658Z,99952.97
2018-12-06T10:23:01.872Z,99955.40
2018-12-06T10:26:05.131Z,99954.28
2018-12-06T10:29:08.354Z,99960.88
2018-12-06T10:32:11.537Z,99964.09
2018-12-06T10:35:14.757Z,99954.24
2018-12-06T10:38:18.127Z,99956.44
2018-12-06T10:41:21.353Z,99953.39
2018-12-06T10:44:29.328Z,99951.19
2018-12-06T10:47:32.512Z,99952.07
2018-12-06T10:50:35.745Z,99947.18
2018-12-06T10:53:38.949Z,99963.88
2018-12-06T10:56:42.188Z,99965.81
2018-12-06T10:59:45.548Z,99968.23
2018-12-06T11:02:48.812Z,99958.16
2018-12-06T11:05:52.170Z,99970.78
2018-12-06T11:08:55.423Z,99968.00
2018-12-06T11:11:58.702Z,99967.75
2018-12-06T11:15:01.937Z,99958.05
2018-12-06T11:18:05.256Z,99954.30
2018-12-06T11:21:08.482Z,99944.08
2018-12-06T11:24:11.702Z,99947.95
2018-12-06T11:27:15.056Z,99948.05
2018-12-06T11:30:18.300Z,99952.33
2018-12-06T11:33:21.536Z,99956.09
2018-12-06T11:36:24.811Z,99952.30
2018-12-06T11:39:28.177Z,99941.24
2018-12-06T11:42:31.417Z,99949.98
2018-12-06T11:45:34.648Z,99956.88
2018-12-06T11:48:37.882Z,99956.22
2018-12-06T11:51:41.114Z,99969.15
2018-12-06T11:54:44.321Z,99972.53
2018-12-06T11:57:47.524Z,99978.52
2018-12-06T12:00:50.804Z,99978.87
2018-12-06T12:03:54.034Z,99988.55
2018-12-06T12:06:57.271Z,99993.49
2018-12-06T12:10:00.509Z,99988.48
2018-12-06T12:13:03.870Z,99992.63
2018-12-06T12:16:09.114Z,99992.48
2018-12-06T12:19:12.372Z,99981.17
2018-12-06T12:22:15.645Z,99984.88
2018-12-06T12:25:18.861Z,99985.13
2018-12-06T12:28:22.101Z,99983.98
2018-12-06T12:31:25.354Z,99983.17
2018-12-06T12:34:28.622Z,99992.11
2018-12-06T12:37:31.896Z,100003.23
2018-12-06T12:40:35.177Z,100010.11
2018-12-06T12:43:38.533Z,99990.99
2018-12-06T12:46:41.745Z,99996.23
2018-12-06T12:49:45.005Z,99988.25
2018-12-06T12:52:48.233Z,99989.58
2018-12-06T12:55:51.517Z,99986.34
2018-12-06T12:58:54.730Z,99986.45
2018-12-06T13:01:58.005Z,99991.84
2018-12-06T13:05:01.228Z,99967.03
2018-12-06T13:08:04.652Z,99972.41
2018-12-06T13:11:07.942Z,99964.47
2018-12-06T13:14:11.357Z,99970.58
2018-12-06T13:17:14.601Z,99979.30
2018-12-06T13:20:17.862Z,99973.13
2018-12-06T13:23:21.077Z,99966.06
2018-12-06T13:26:24.533Z,99958.77
2018-12-06T13:29:27.901Z,99963.84
2018-12-06T13:32:31.253Z,99960.14
2018-12-06T13:35:34.481Z,99963.77
2018-12-06T13:38:37.716Z,99961.07
2018-12-06T13:41:41.821Z,99967.53
2018-12-06T13:44:45.077Z,99964.62
2018-12-06T13:47:48.308Z,99972.73
2018-12-06T13:50:51.694Z,99963.66
2018-12-06T13:53:54.947Z,99967.56
2018-12-06T13:56:58.221Z,99971.60
2018-12-06T14:00:01.466Z,99979.33
2018-12-06T14:03:04.729Z,99968.73
2018-12-06T14:06:07.996Z,99972.83
2018-12-06T14:09:11.233Z,99965.48
2018-12-06T14:12:14.485Z,99977.95
2018-12-06T14:15:17.733Z,99981.10
2018-12-06T14:18:20.949Z,99976.95
2018-12-06T14:21:24.181Z,99977.80
2018-12-06T14:24:27.412Z,99982.52
2018-12-06T14:27:30.649Z,99986.48
2018-12-06T14:30:33.890Z,99984.47
2018-12-06T14:33:37.411Z,99990.62
2018-12-06T14:36:40.693Z,99984.48
2018-12-06T14:39:43.985Z,99989.95
2018-12-06T14:42:47.325Z,99994.13
2018-12-06T14:45:51.128Z,100000.03
2018-12-06T14:48:54.404Z,99986.97
2018-12-06T14:51:57.657Z,99989.95
2018-12-06T14:55:00.890Z,99991.57
2018-12-06T14:58:04.225Z,99994.79
2018-12-06T15:01:07.565Z,100002.25
2018-12-06T15:04:11.025Z,100006.70
2018-12-06T15:07:14.245Z,100009.14
2018-12-06T15:10:17.443Z,100015.16
2018-12-06T15:13:20.797Z,100008.55
2018-12-06T15:16:24.036Z,100005.95
2018-12-06T15:19:27.240Z,100007.67
2018-12-06T15:22:30.465Z,99996.36
2018-12-06T15:25:33.649Z,99991.21
2018-12-06T15:28:36.860Z,99987.14
2018-12-06T15:31:40.072Z,99987.06
2018-12-06T15:34:43.269Z,99992.17
2018-12-06T15:37:46.565Z,100004.95
2018-12-06T15:40:49.796Z,99995.80
2018-12-06T15:43:53.037Z,99989.64
2018-12-06T15:46:56.289Z,99991.88
2018-12-06T15:49:59.497Z,100001.80
2018-12-06T15:53:02.725Z,99996.29
2018-12-06T15:56:05.937Z,100000.31
2018-12-06T15:59:09.185Z,99994.92
2018-12-06T16:02:12.417Z,99998.35
2018-12-06T16:05:15.681Z,100002.16
2018-12-06T16:08:20.155Z,99996.33
2018-12-06T16:11:23.361Z,100003.78
2018-12-06T16:14:26.605Z,100001.08
2018-12-06T16:17:29.829Z,100009.30
2018-12-06T16:20:33.120Z,100002.09
2018-12-06T16:23:36.398Z,100000.19
2018-12-06T16:26:39.625Z,100004.01
2018-12-06T16:29:51.199Z,100003.45
2018-12-06T16:32:48.060Z,100001.95
2018-12-06T16:35:51.316Z,99990.94
2018-12-06T16:38:54.544Z,99988.86
2018-12-06T16:41:57.809Z,99993.40
2018-12-06T16:45:01.081Z,99990.75
2018-12-06T16:48:04.353Z,99992.84
2018-12-06T16:51:07.564Z,99987.99
2018-12-06T16:54:10.953Z,99988.89
2018-12-06T16:57:14.148Z,99985.59
2018-12-06T17:00:17.521Z,99986.97
2018-12-06T17:03:20.737Z,99992.47
2018-12-06T17:06:23.969Z,99995.75
2018-12-06T17:09:27.213Z,99996.56
2018-12-06T17:12:30.409Z,99998.43
2018-12-06T17:15:33.667Z,99990.03
2018-12-06T17:18:36.892Z,99991.63
2018-12-06T17:21:40.101Z,99992.56
2018-12-06T17:24:43.337Z,99987.23
2018-12-06T17:27:46.588Z,99986.42
2018-12-06T17:30:49.937Z,99988.91
2018-12-06T17:33:53.182Z,99989.77
2018-12-06T17:36:56.397Z,99991.86
2018-12-06T17:39:59.754Z,99985.84
2018-12-06T17:43:03.105Z,99982.84
2018-12-06T17:46:06.377Z,99983.27
2018-12-06T17:49:09.713Z,99984.20
2018-12-06T17:52:13.301Z,99976.52
2018-12-06T17:55:16.661Z,99972.09
2018-12-06T17:58:19.925Z,99967.70
2018-12-06T18:01:23.161Z,99980.81
2018-12-06T18:04:26.405Z,99976.64
2018-12-06T18:07:29.633Z,99974.80
2018-12-06T18:10:33.418Z,99966.76
2018-12-06T18:13:36.656Z,99971.70
2018-12-06T18:16:39.932Z,99969.95
2018-12-06T18:19:43.249Z,99967.24
2018-12-06T18:22:46.501Z,99967.14
2018-12-06T18:25:49.724Z,99963.45
2018-12-06T18:28:52.957Z,99967.86
2018-12-06T18:31:56.237Z,99968.25
2018-12-06T18:34:59.582Z,99968.98
2018-12-06T18:38:02.862Z,99972.67
2018-12-06T18:41:06.009Z,99971.64
2018-12-06T18:44:09.367Z,99984.47
2018-12-06T18:47:13.038Z,99981.23
2018-12-06T18:50:16.422Z,99978.71
2018-12-06T18:53:19.713Z,99978.68
2018-12-06T18:56:23.240Z,99977.74
2018-12-06T18:59:26.558Z,99982.20
2018-12-06T19:02:29.891Z,99982.59
2018-12-06T19:05:33.241Z,99978.13
2018-12-06T19:08:36.546Z,99976.48
2018-12-06T19:11:39.829Z,99984.75
2018-12-06T19:14:43.133Z,99982.81
2018-12-06T19:17:47.505Z,99976.61
2018-12-06T19:20:50.882Z,99980.58
2018-12-06T19:23:54.165Z,99978.30
2018-12-06T19:26:57.443Z,99982.01
2018-12-06T19:30:00.773Z,99983.53
2018-12-06T19:33:04.049Z,99980.94
2018-12-06T19:36:07.297Z,99980.63
2018-12-06T19:39:10.758Z,99989.31
2018-12-06T19:42:14.122Z,99977.81
2018-12-06T19:45:17.533Z,99981.72
2018-12-06T19:48:20.950Z,99978.87
2018-12-06T19:51:24.247Z,99973.73
2018-12-06T19:54:27.494Z,99965.73
2018-12-06T19:57:30.839Z,99966.50
2018-12-06T20:00:34.114Z,99970.67
2018-12-06T20:03:37.368Z,99974.52
2018-12-06T20:06:40.656Z,99974.34
2018-12-06T20:09:43.984Z,99968.53
2018-12-06T20:15:48.782Z,99959.45
2018-12-06T20:18:52.062Z,99951.90
2018-12-06T20:21:55.370Z,99945.56
2018-12-06T20:24:58.651Z,99943.08
2018-12-06T20:28:02.026Z,99933.26
2018-12-06T20:31:05.317Z,99935.03
2018-12-06T20:34:08.606Z,99920.50
2018-12-06T20:37:11.873Z,99922.46
2018-12-06T20:40:15.137Z,99919.14
2018-12-06T20:43:18.386Z,99921.30
2018-12-06T20:46:21.676Z,99906.63
2018-12-06T20:49:24.999Z,99904.20
2018-12-06T20:52:28.289Z,99909.95
2018-12-06T20:55:31.544Z,99909.95
2018-12-06T20:58:34.830Z,99902.84
2018-12-06T21:01:38.094Z,99899.28
2018-12-06T21:04:41.324Z,99909.32
2018-12-06T21:07:44.577Z,99902.00
2018-12-06T21:10:47.853Z,99904.93
2018-12-06T21:13:51.162Z,99908.03
2018-12-06T21:16:54.638Z,99893.45
2018-12-06T21:19:57.906Z,99900.36
2018-12-06T21:23:01.233Z,99900.39
2018-12-06T21:26:04.514Z,99889.06
2018-12-06T21:29:07.800Z,99885.43
2018-12-06T21:32:11.182Z,99882.16
2018-12-06T21:35:14.494Z,99875.98
2018-12-06T21:38:17.951Z,99879.30
2018-12-06T21:41:21.202Z,99878.70
2018-12-06T21:44:24.450Z,99887.28
2018-12-06T21:47:27.749Z,99887.66
2018-12-06T21:50:31.089Z,99905.24
2018-12-06T21:53:34.503Z,99880.38
2018-12-06T21:56:37.886Z,99880.45
2018-12-06T21:59:41.166Z,99885.33
2018-12-06T22:02:44.409Z,99872.11
2018-12-06T22:05:47.646Z,99872.67
2018-12-06T22:08:50.941Z,99868.55
2018-12-06T22:11:54.306Z,99861.16
2018-12-06T22:14:57.564Z,99860.70
2018-12-06T22:18:00.818Z,99865.80
2018-12-06T22:21:04.116Z,99873.99
2018-12-06T22:24:07.394Z,99876.05
2018-12-06T22:27:10.663Z,99855.86
2018-12-06T22:30:13.961Z,99877.38
2018-12-06T22:33:17.245Z,99857.03
2018-12-06T22:36:20.515Z,99848.63
2018-12-06T22:39:23.820Z,99854.39
2018-12-06T22:42:27.081Z,99853.55
2018-12-06T22:46:01.625Z,99851.93
2018-12-06T22:49:04.884Z,99845.45
2018-12-06T22:52:08.168Z,99853.97
2018-12-06T22:55:11.550Z,99846.89
2018-12-06T22:58:14.789Z,99854.84
2018-12-06T23:04:42.097Z,99859.69
2018-12-06T23:07:45.426Z,99858.40
2018-12-06T23:10:48.933Z,99857.59
2018-12-06T23:13:52.413Z,99868.04
2018-12-06T23:16:55.842Z,99874.59
2018-12-06T23:19:59.085Z,99865.88
2018-12-06T23:23:02.414Z,99874.88
2018-12-06T23:26:05.677Z,99870.90
2018-12-06T23:29:08.942Z,99873.17
2018-12-06T23:32:12.157Z,99874.62
2018-12-06T23:35:15.404Z,99876.38
2018-12-06T23:38:18.665Z,99872.92
2018-12-06T23:41:21.985Z,99875.44
2018-12-06T23:44:25.216Z,99882.30
2018-12-06T23:47:28.502Z,99857.20
2018-12-06T23:50:31.733Z,99856.75
2018-12-06T23:53:35.010Z,99865.08
2018-12-06T23:56:38.294Z,99880.69
2018-12-06T23:59:41.642Z,99863.96
